Terminal Aerodrome Forecast
Issued by NWS

Home | Current Version | Previous Version | Text Only | Print | Product List | Glossary On
Versions: 1 2 3 4 5 6 7 8 9 10 11 12 13 14
000
FTUS41 KPBZ 271000 AAA
TAFAGC
TAF AMD
KAGC 271001Z 2710/2806 18006KT P6SM BKN200
     FM271100 20005KT P6SM OVC035
     FM271600 19008KT P6SM BKN150
     FM280400 24005KT 4SM -RA OVC025=

USA.gov is the U.S. government's official web portal to all federal, state and local government web resources and services.